Time;durP1;ratioP1;P1;durP2;ratioP2;P2;SDS_P1;SDS_P2;PMS_P1;PMS_P2;Temp;Humidity;BMP_temperature;BMP_pressure;BME280_temperature;BME280_humidity;BME280_pressure;Samples;Min_cycle;Max_cycle;Signal;HPM_P1;HPM_P2
2023/10/21 00:02:02;;;;;;;0.60;0.60;;;14.00;88.80;;;;;;5040512;28;20058;-62
2023/10/21 00:04:29;;;;;;;0.73;0.70;;;14.00;88.60;;;;;;5025143;28;20057;-61
2023/10/21 00:06:54;;;;;;;0.77;0.75;;;13.90;88.60;;;;;;5037820;28;20037;-62
2023/10/21 00:09:20;;;;;;;0.65;0.65;;;13.90;88.60;;;;;;5041513;28;20538;-62
2023/10/21 00:11:46;;;;;;;1.42;0.73;;;13.90;88.50;;;;;;5041998;28;20033;-61
2023/10/21 00:14:12;;;;;;;1.48;0.90;;;13.80;88.50;;;;;;5041354;28;20057;-62
2023/10/21 00:16:38;;;;;;;0.98;0.80;;;13.80;88.50;;;;;;5029350;28;20112;-66
2023/10/21 00:19:03;;;;;;;1.08;0.80;;;13.80;88.40;;;;;;5033418;28;20378;-66
2023/10/21 00:21:29;;;;;;;1.15;1.02;;;13.70;88.30;;;;;;5041173;28;20025;-66
2023/10/21 00:23:55;;;;;;;1.60;1.10;;;13.70;88.30;;;;;;5044442;28;20123;-66
2023/10/21 00:26:21;;;;;;;1.23;0.88;;;13.70;88.20;;;;;;5041488;28;20180;-66
2023/10/21 00:28:47;;;;;;;0.80;0.80;;;13.60;88.20;;;;;;5045177;28;20427;-62
2023/10/21 00:31:13;;;;;;;0.88;0.88;;;13.60;88.20;;;;;;5044505;28;20115;-62
2023/10/21 00:33:38;;;;;;;1.25;0.90;;;13.60;88.10;;;;;;5042750;28;20029;-66
2023/10/21 00:36:04;;;;;;;3.90;1.00;;;13.60;88.00;;;;;;5046317;28;20045;-66
2023/10/21 00:38:30;;;;;;;2.67;0.77;;;13.60;88.00;;;;;;5040868;28;20025;-66
2023/10/21 00:40:56;;;;;;;1.05;0.93;;;13.60;87.90;;;;;;5042114;28;20074;-62
2023/10/21 00:43:35;;;;;;;1.17;0.77;;;13.50;87.70;;;;;;5046358;28;20025;-65
2023/10/21 00:46:13;;;;;;;1.35;0.90;;;13.50;87.70;;;;;;5031040;28;20506;-62
2023/10/21 00:48:40;;;;;;;1.73;0.93;;;13.50;87.70;;;;;;5038461;28;20033;-61
2023/10/21 00:51:06;;;;;;;1.55;0.50;;;13.50;87.70;;;;;;5041438;28;20102;-62
2023/10/21 00:53:34;;;;;;;1.00;0.70;;;13.50;87.70;;;;;;5037908;28;20033;-62
2023/10/21 00:56:00;;;;;;;0.55;0.50;;;13.50;87.60;;;;;;5041935;28;20101;-62
2023/10/21 00:58:27;;;;;;;1.08;0.77;;;13.50;87.60;;;;;;5040993;28;20025;-62
2023/10/21 01:00:57;;;;;;;0.52;0.52;;;13.60;87.70;;;;;;5028032;28;20031;-66
2023/10/21 01:03:27;;;;;;;0.70;0.70;;;13.60;87.60;;;;;;5046034;28;20881;-66
2023/10/21 01:05:53;;;;;;;0.73;0.65;;;13.70;87.50;;;;;;5020630;28;20476;-66
2023/10/21 01:08:19;;;;;;;1.25;0.75;;;13.70;87.50;;;;;;5045250;28;20028;-66
2023/10/21 01:10:45;;;;;;;2.35;0.90;;;13.70;87.50;;;;;;5042299;28;20033;-67
2023/10/21 01:13:11;;;;;;;1.48;1.23;;;13.80;87.60;;;;;;5028184;28;20064;-66
2023/10/21 01:15:36;;;;;;;1.13;1.00;;;13.80;87.60;;;;;;5042814;28;20079;-62
2023/10/21 01:18:03;;;;;;;1.15;0.93;;;13.80;87.60;;;;;;5025531;28;20021;-62
2023/10/21 01:20:29;;;;;;;1.10;1.00;;;13.90;87.60;;;;;;5037674;28;20361;-62
2023/10/21 01:23:02;;;;;;;3.15;0.90;;;13.90;87.60;;;;;;5044029;28;20033;-62
2023/10/21 01:25:28;;;;;;;2.08;0.68;;;13.90;87.70;;;;;;5043048;28;20063;-61
2023/10/21 01:27:55;;;;;;;0.90;0.88;;;13.90;87.60;;;;;;5042821;28;20052;-62
2023/10/21 01:30:21;;;;;;;0.90;0.77;;;13.90;87.50;;;;;;5041505;28;20024;-62
2023/10/21 01:32:47;;;;;;;2.35;0.85;;;14.00;87.50;;;;;;5043697;28;20499;-62
2023/10/21 01:35:14;;;;;;;0.50;0.50;;;14.00;87.60;;;;;;5042636;28;20396;-66
2023/10/21 01:37:40;;;;;;;0.85;0.80;;;14.00;87.60;;;;;;5029662;28;20127;-66
2023/10/21 01:40:06;;;;;;;0.77;0.70;;;14.00;87.60;;;;;;5029829;28;20523;-66
2023/10/21 01:42:34;;;;;;;1.95;0.65;;;14.10;87.60;;;;;;5048576;28;20029;-66
2023/10/21 01:44:59;;;;;;;1.60;1.00;;;14.10;87.60;;;;;;5047646;28;20051;-61
2023/10/21 01:47:26;;;;;;;5.07;0.70;;;14.10;87.60;;;;;;5038389;28;20033;-62
2023/10/21 01:49:53;;;;;;;0.88;0.73;;;14.20;87.60;;;;;;5039412;28;20025;-66
2023/10/21 01:52:19;;;;;;;0.47;0.47;;;14.20;87.60;;;;;;5048240;28;20057;-67
2023/10/21 01:54:45;;;;;;;0.68;0.68;;;14.20;87.60;;;;;;5047905;28;20484;-66
2023/10/21 01:57:10;;;;;;;0.98;0.70;;;14.20;87.60;;;;;;5043287;28;20022;-61
2023/10/21 01:59:40;;;;;;;1.10;0.68;;;14.30;87.60;;;;;;5046360;28;20064;-62
2023/10/21 02:02:06;;;;;;;0.80;0.70;;;14.30;87.60;;;;;;5047148;28;20061;-62
2023/10/21 02:04:32;;;;;;;1.58;0.50;;;14.30;87.60;;;;;;5046987;28;20068;-62
2023/10/21 02:06:57;;;;;;;3.42;1.13;;;14.30;87.70;;;;;;5037878;28;20030;-62
2023/10/21 02:09:23;;;;;;;1.13;0.80;;;14.30;87.70;;;;;;5041074;28;20553;-62
2023/10/21 02:11:49;;;;;;;1.33;1.05;;;14.20;87.70;;;;;;5043363;28;20045;-62
2023/10/21 02:14:14;;;;;;;0.85;0.70;;;14.20;87.80;;;;;;5049079;28;20041;-67
2023/10/21 02:16:40;;;;;;;1.33;1.23;;;14.20;87.90;;;;;;5025574;28;20022;-66
2023/10/21 02:19:06;;;;;;;0.43;0.43;;;14.20;87.90;;;;;;5032364;28;20131;-67
2023/10/21 02:21:31;;;;;;;0.65;0.65;;;14.10;87.80;;;;;;5043106;28;20576;-66
2023/10/21 02:23:57;;;;;;;1.30;0.90;;;14.10;87.80;;;;;;5030032;28;20097;-66
2023/10/21 02:26:23;;;;;;;0.88;0.80;;;14.10;87.80;;;;;;5043555;28;20511;-67
2023/10/21 02:28:48;;;;;;;1.05;0.73;;;14.00;87.90;;;;;;5047737;28;20025;-66
2023/10/21 02:31:14;;;;;;;0.52;0.52;;;14.00;87.90;;;;;;5036486;28;20143;-66
2023/10/21 02:33:40;;;;;;;1.17;0.80;;;14.00;87.90;;;;;;5020617;28;20100;-66
2023/10/21 02:36:05;;;;;;;1.27;0.90;;;14.00;87.90;;;;;;5041758;28;20351;-61
2023/10/21 02:38:31;;;;;;;0.98;0.80;;;14.00;87.90;;;;;;5023941;28;20112;-62
2023/10/21 02:40:57;;;;;;;0.95;0.88;;;14.00;87.90;;;;;;5045661;28;20032;-62
2023/10/21 02:43:22;;;;;;;1.05;1.00;;;14.00;87.90;;;;;;5044073;28;20029;-66
2023/10/21 02:45:48;;;;;;;1.52;0.80;;;14.00;87.90;;;;;;5046775;28;20094;-67
2023/10/21 02:48:14;;;;;;;0.75;0.73;;;14.00;87.90;;;;;;5040871;28;20026;-66
2023/10/21 02:50:40;;;;;;;1.10;1.00;;;14.00;87.80;;;;;;5044837;28;20033;-66
2023/10/21 02:53:06;;;;;;;1.10;0.70;;;13.90;87.80;;;;;;5040374;28;20041;-66
2023/10/21 02:55:32;;;;;;;1.63;0.98;;;13.90;87.80;;;;;;5043198;28;20033;-66
2023/10/21 02:57:58;;;;;;;2.97;0.80;;;13.90;87.70;;;;;;5038300;28;20025;-67
2023/10/21 03:00:23;;;;;;;0.50;0.47;;;13.90;87.80;;;;;;5041631;28;20100;-66
2023/10/21 03:02:49;;;;;;;1.17;1.08;;;13.90;87.70;;;;;;5022094;28;20049;-61
2023/10/21 03:05:16;;;;;;;1.52;1.08;;;13.90;87.70;;;;;;5025604;28;20037;-66
2023/10/21 03:07:43;;;;;;;1.05;0.65;;;13.90;87.70;;;;;;5021446;28;20493;-66
2023/10/21 03:10:09;;;;;;;0.60;0.60;;;13.90;87.70;;;;;;5017114;28;20508;-66
2023/10/21 03:12:35;;;;;;;1.50;0.85;;;13.90;87.70;;;;;;5021094;28;20032;-66
2023/10/21 03:15:00;;;;;;;0.88;0.70;;;14.00;87.70;;;;;;5027156;28;20033;-62
2023/10/21 03:17:26;;;;;;;2.05;1.33;;;14.00;87.70;;;;;;5026180;28;20112;-62
2023/10/21 03:19:55;;;;;;;2.83;1.20;;;14.00;87.70;;;;;;5024076;28;20454;-62
2023/10/21 03:22:21;;;;;;;1.27;0.80;;;14.00;87.70;;;;;;5027293;28;20022;-62
2023/10/21 03:24:47;;;;;;;1.55;0.82;;;14.00;87.70;;;;;;5018759;28;20112;-62
2023/10/21 03:27:13;;;;;;;1.02;0.90;;;14.00;87.70;;;;;;5028744;28;20117;-62
2023/10/21 03:29:40;;;;;;;3.28;1.02;;;13.90;87.80;;;;;;5040517;28;20087;-62
2023/10/21 03:32:06;;;;;;;0.80;0.80;;;14.00;87.80;;;;;;5027523;28;20116;-62
2023/10/21 03:34:33;;;;;;;1.30;1.08;;;14.00;87.70;;;;;;5024629;28;20052;-62
2023/10/21 03:37:00;;;;;;;2.13;0.90;;;14.00;87.80;;;;;;5025761;28;20018;-62
2023/10/21 03:39:26;;;;;;;5.45;1.15;;;14.10;87.80;;;;;;5019524;28;20560;-62
2023/10/21 03:41:52;;;;;;;1.23;1.00;;;14.10;87.80;;;;;;5020916;28;20037;-62
2023/10/21 03:44:18;;;;;;;0.90;0.70;;;14.10;87.80;;;;;;5018300;28;20041;-62
2023/10/21 03:46:45;;;;;;;1.00;0.77;;;14.10;87.80;;;;;;5024626;28;20029;-62
2023/10/21 03:49:11;;;;;;;2.38;0.80;;;14.10;87.70;;;;;;5022487;28;20961;-62
2023/10/21 03:51:36;;;;;;;1.58;1.15;;;14.10;87.70;;;;;;5032169;28;20044;-62
2023/10/21 03:54:02;;;;;;;1.83;1.00;;;14.20;87.70;;;;;;5023933;28;20041;-62
2023/10/21 03:56:28;;;;;;;1.70;1.02;;;14.20;87.70;;;;;;5026860;28;20029;-62
2023/10/21 03:58:54;;;;;;;2.25;0.95;;;14.20;87.60;;;;;;5019982;28;20480;-62
2023/10/21 04:01:22;;;;;;;0.85;0.85;;;14.20;87.70;;;;;;5020265;28;20057;-62
2023/10/21 04:03:48;;;;;;;0.85;0.85;;;14.20;87.80;;;;;;5039345;28;20057;-62
2023/10/21 04:06:15;;;;;;;1.17;1.08;;;14.20;87.70;;;;;;5040533;28;20052;-67
2023/10/21 04:08:41;;;;;;;1.15;0.85;;;14.20;87.70;;;;;;5039763;28;21497;-67
2023/10/21 04:11:08;;;;;;;2.15;1.17;;;14.10;87.70;;;;;;5036139;28;20033;-66
2023/10/21 04:13:36;;;;;;;1.38;1.02;;;14.10;87.80;;;;;;5040586;28;20474;-66
2023/10/21 04:16:03;;;;;;;1.55;1.10;;;14.10;87.80;;;;;;5027006;28;20032;-66
2023/10/21 04:18:28;;;;;;;3.78;1.45;;;14.10;87.80;;;;;;5002328;28;20034;-66
2023/10/21 04:20:55;;;;;;;1.20;1.10;;;14.10;87.80;;;;;;5038740;28;20079;-66
2023/10/21 04:23:21;;;;;;;1.38;1.00;;;14.10;87.80;;;;;;5038701;28;20026;-66
2023/10/21 04:25:47;;;;;;;1.30;1.02;;;14.10;87.70;;;;;;5022371;28;20384;-66
2023/10/21 04:28:13;;;;;;;1.25;1.15;;;14.00;87.80;;;;;;5041404;28;20020;-66
2023/10/21 04:30:38;;;;;;;1.33;0.90;;;14.00;87.80;;;;;;5025863;28;20036;-66
2023/10/21 04:33:04;;;;;;;1.10;0.85;;;14.00;87.80;;;;;;5042296;28;20369;-66
2023/10/21 04:35:31;;;;;;;2.05;1.10;;;14.00;87.80;;;;;;5039913;28;20120;-66
2023/10/21 04:37:57;;;;;;;1.77;1.05;;;14.00;87.80;;;;;;5040231;28;20025;-66
2023/10/21 04:40:22;;;;;;;1.65;0.90;;;14.00;87.80;;;;;;5041144;28;20170;-61
2023/10/21 04:42:48;;;;;;;1.15;1.02;;;14.00;87.80;;;;;;5036321;28;20036;-62
2023/10/21 04:45:14;;;;;;;1.63;0.98;;;14.00;87.80;;;;;;5028504;28;20392;-62
2023/10/21 04:47:39;;;;;;;1.95;1.20;;;14.00;87.70;;;;;;5042916;28;20028;-62
2023/10/21 04:50:06;;;;;;;1.65;1.17;;;14.00;87.70;;;;;;5043740;28;20045;-67
2023/10/21 04:52:32;;;;;;;1.27;0.90;;;14.10;87.80;;;;;;5041465;28;20048;-67
2023/10/21 04:54:57;;;;;;;0.95;0.85;;;14.10;87.80;;;;;;5044341;28;20030;-66
2023/10/21 04:57:23;;;;;;;0.70;0.70;;;14.10;87.80;;;;;;5022593;28;20044;-66
2023/10/21 04:59:49;;;;;;;1.27;1.13;;;14.10;87.70;;;;;;5021867;28;20428;-67
2023/10/21 05:02:15;;;;;;;0.90;0.90;;;14.10;87.80;;;;;;5044347;28;20535;-67
2023/10/21 05:04:41;;;;;;;0.85;0.80;;;14.20;87.90;;;;;;5040900;28;20025;-62
2023/10/21 05:07:07;;;;;;;1.73;1.10;;;14.20;87.90;;;;;;5048138;28;20542;-63
2023/10/21 05:09:33;;;;;;;1.38;1.13;;;14.20;87.90;;;;;;5046358;28;20364;-63
2023/10/21 05:12:00;;;;;;;0.93;0.88;;;14.20;87.90;;;;;;5045535;28;20032;-64
2023/10/21 05:14:25;;;;;;;1.08;0.98;;;14.20;87.90;;;;;;5036888;28;20056;-62
2023/10/21 05:16:51;;;;;;;0.93;0.82;;;14.20;87.80;;;;;;5036747;28;20464;-62
2023/10/21 05:19:17;;;;;;;1.17;1.08;;;14.10;87.80;;;;;;5041174;28;20044;-62
2023/10/21 05:21:43;;;;;;;2.20;0.70;;;14.20;88.00;;;;;;5037151;28;20025;-62
2023/10/21 05:24:10;;;;;;;1.42;0.90;;;14.10;87.90;;;;;;5024722;28;20076;-62
2023/10/21 05:26:36;;;;;;;1.02;0.75;;;14.20;88.10;;;;;;5037584;28;20568;-63
2023/10/21 05:29:02;;;;;;;0.88;0.88;;;14.20;88.10;;;;;;5044224;28;20039;-62
2023/10/21 05:31:28;;;;;;;0.82;0.77;;;14.20;88.00;;;;;;5045588;28;20488;-62
2023/10/21 05:33:57;;;;;;;2.38;1.02;;;14.20;88.00;;;;;;5023397;28;20116;-62
2023/10/21 05:36:23;;;;;;;1.60;0.90;;;14.20;88.00;;;;;;5039698;28;20083;-63
2023/10/21 05:38:49;;;;;;;1.05;0.95;;;14.10;87.90;;;;;;5036801;28;20037;-62
2023/10/21 05:41:15;;;;;;;1.92;0.82;;;14.10;88.00;;;;;;5044862;28;20037;-62
2023/10/21 05:43:40;;;;;;;1.10;1.00;;;14.00;87.90;;;;;;5041681;28;20503;-62
2023/10/21 05:46:06;;;;;;;1.20;1.10;;;14.00;88.00;;;;;;5039891;28;20494;-62
2023/10/21 05:48:32;;;;;;;0.85;0.85;;;13.90;88.10;;;;;;5021325;28;20033;-62
2023/10/21 05:51:01;;;;;;;1.70;0.80;;;13.90;88.10;;;;;;5041567;28;20059;-62
2023/10/21 05:53:27;;;;;;;1.58;1.00;;;13.90;88.10;;;;;;5039092;28;20128;-63
2023/10/21 05:55:55;;;;;;;4.15;1.20;;;13.90;88.10;;;;;;5038132;28;20522;-63
2023/10/21 05:58:21;;;;;;;1.95;1.10;;;13.80;88.10;;;;;;5042597;28;20373;-62
2023/10/21 06:00:46;;;;;;;5.20;1.00;;;13.80;88.10;;;;;;5039341;28;20112;-63
2023/10/21 06:03:13;;;;;;;1.00;0.90;;;13.80;88.10;;;;;;5040736;28;20120;-63
2023/10/21 06:05:39;;;;;;;1.60;1.20;;;13.80;88.00;;;;;;5033204;28;20472;-62
2023/10/21 06:08:05;;;;;;;1.25;0.90;;;13.70;87.90;;;;;;5036664;28;20033;-62
2023/10/21 06:10:31;;;;;;;1.88;1.33;;;13.70;88.00;;;;;;5039285;28;20029;-62
2023/10/21 06:12:56;;;;;;;1.10;1.00;;;13.60;87.90;;;;;;5036391;28;20422;-62
2023/10/21 06:15:22;;;;;;;1.15;0.95;;;13.60;87.90;;;;;;5040870;28;20033;-62
2023/10/21 06:17:48;;;;;;;2.03;1.27;;;13.60;87.90;;;;;;5042965;28;20220;-63
2023/10/21 06:20:13;;;;;;;1.88;0.77;;;13.50;87.80;;;;;;5027638;28;20029;-63
2023/10/21 06:22:39;;;;;;;1.13;0.93;;;13.50;87.70;;;;;;5050298;28;20060;-67
2023/10/21 06:25:05;;;;;;;1.17;1.00;;;13.50;87.70;;;;;;5039495;28;20033;-67
2023/10/21 06:27:31;;;;;;;1.77;1.20;;;13.50;87.70;;;;;;5050080;28;20068;-62
2023/10/21 06:29:57;;;;;;;1.27;1.05;;;13.50;87.60;;;;;;5027815;28;20048;-62
2023/10/21 06:32:22;;;;;;;1.48;0.90;;;13.50;87.60;;;;;;5031058;28;20037;-63
2023/10/21 06:34:50;;;;;;;1.15;1.02;;;13.50;87.50;;;;;;5030812;28;20041;-63
2023/10/21 06:37:15;;;;;;;2.15;1.05;;;13.50;87.50;;;;;;5042646;28;20067;-62
2023/10/21 06:39:41;;;;;;;1.17;0.82;;;13.50;87.50;;;;;;5044654;28;20056;-63
2023/10/21 06:42:07;;;;;;;1.95;0.77;;;13.50;87.40;;;;;;5043046;28;20017;-67
2023/10/21 06:44:35;;;;;;;0.80;0.80;;;13.50;87.40;;;;;;5041197;28;20088;-67
2023/10/21 06:47:01;;;;;;;1.33;1.20;;;13.60;87.40;;;;;;5030219;28;20053;-63
2023/10/21 06:49:27;;;;;;;1.02;1.00;;;13.50;87.30;;;;;;5044907;28;20078;-63
2023/10/21 06:51:55;;;;;;;0.88;0.88;;;13.60;87.30;;;;;;5049463;28;20029;-62
2023/10/21 06:54:21;;;;;;;2.13;1.33;;;13.60;87.30;;;;;;5045794;28;20041;-67
2023/10/21 06:56:47;;;;;;;4.35;1.45;;;13.60;87.30;;;;;;5041305;28;20021;-67
2023/10/21 06:59:15;;;;;;;2.05;1.00;;;13.60;87.30;;;;;;5047993;28;20039;-67
2023/10/21 07:01:41;;;;;;;1.27;0.80;;;13.60;87.30;;;;;;5045972;28;20448;-69
2023/10/21 07:04:10;;;;;;;1.33;1.10;;;13.60;87.20;;;;;;5044737;28;20231;-69
2023/10/21 07:06:36;;;;;;;2.38;1.27;;;13.60;87.20;;;;;;5043399;28;20029;-69
2023/10/21 07:09:02;;;;;;;1.65;1.38;;;13.60;87.10;;;;;;5045477;28;20104;-68
2023/10/21 07:11:28;;;;;;;1.13;0.98;;;13.60;87.10;;;;;;5044227;28;20503;-67
2023/10/21 07:13:54;;;;;;;1.55;1.08;;;13.70;87.20;;;;;;5047288;28;20174;-69
2023/10/21 07:16:19;;;;;;;1.05;0.95;;;13.80;87.10;;;;;;5043238;28;20113;-70
2023/10/21 07:18:45;;;;;;;0.70;0.63;;;13.80;87.00;;;;;;5041485;28;20492;-70
2023/10/21 07:21:11;;;;;;;1.02;0.90;;;13.90;87.00;;;;;;5040310;28;20464;-71
2023/10/21 07:23:36;;;;;;;0.85;0.80;;;13.90;87.00;;;;;;5042798;28;20037;-70
2023/10/21 07:26:02;;;;;;;8.32;1.13;;;14.00;87.00;;;;;;5047129;28;20106;-69
2023/10/21 07:28:28;;;;;;;3.08;1.50;;;14.00;87.00;;;;;;5044849;28;20059;-69
2023/10/21 07:30:54;;;;;;;2.58;1.13;;;14.10;87.10;;;;;;5046211;28;20484;-69
2023/10/21 07:33:23;;;;;;;1.63;1.02;;;14.10;87.20;;;;;;5040723;28;20056;-69
2023/10/21 07:35:51;;;;;;;1.23;0.98;;;14.20;87.20;;;;;;5037760;28;20032;-69
2023/10/21 07:38:16;;;;;;;1.20;1.00;;;14.30;87.60;;;;;;5024965;28;20021;-73
2023/10/21 07:40:43;;;;;;;1.85;1.50;;;14.30;87.50;;;;;;5046831;28;20025;-72
2023/10/21 07:43:09;;;;;;;1.10;0.77;;;14.40;87.60;;;;;;5048323;28;20490;-64
2023/10/21 07:45:35;;;;;;;1.52;1.20;;;14.40;87.50;;;;;;5045768;28;20032;-65
2023/10/21 07:48:02;;;;;;;1.23;1.13;;;14.50;87.70;;;;;;5043992;28;20378;-65
2023/10/21 07:50:28;;;;;;;1.50;0.93;;;14.50;87.60;;;;;;5047027;28;20033;-69
2023/10/21 07:52:54;;;;;;;1.65;0.93;;;14.60;87.90;;;;;;5039361;28;20442;-68
2023/10/21 07:55:20;;;;;;;1.23;0.90;;;14.60;88.20;;;;;;5040918;28;20435;-64
2023/10/21 07:57:45;;;;;;;1.85;1.33;;;14.60;88.20;;;;;;5040697;28;20124;-72
2023/10/21 08:00:15;;;;;;;7.00;1.85;;;14.60;88.20;;;;;;5045061;28;20027;-63
2023/10/21 08:02:41;;;;;;;1.60;1.33;;;14.70;88.40;;;;;;5035512;28;20580;-62
2023/10/21 08:05:07;;;;;;;1.17;1.08;;;14.70;88.50;;;;;;5038545;28;20056;-63
2023/10/21 08:07:34;;;;;;;1.30;1.17;;;14.70;88.90;;;;;;5027601;28;20057;-63
2023/10/21 08:09:59;;;;;;;0.70;0.70;;;14.80;89.30;;;;;;5046519;28;20031;-64
2023/10/21 08:12:27;;;;;;;1.30;0.90;;;14.80;89.20;;;;;;5044266;28;20037;-71
2023/10/21 08:14:53;;;;;;;0.73;0.70;;;14.80;89.10;;;;;;5039544;28;20088;-68
2023/10/21 08:17:19;;;;;;;1.05;0.70;;;14.90;89.10;;;;;;5017677;28;20471;-70
2023/10/21 08:19:47;;;;;;;3.05;1.00;;;14.90;89.30;;;;;;5027566;28;20033;-70
2023/10/21 08:22:12;;;;;;;0.80;0.80;;;14.90;89.30;;;;;;5038880;28;20021;-75
2023/10/21 08:24:38;;;;;;;1.38;1.05;;;14.90;89.30;;;;;;5022762;28;20047;-70
2023/10/21 08:27:04;;;;;;;1.58;1.10;;;14.90;89.70;;;;;;5024501;28;20061;-68
2023/10/21 08:29:30;;;;;;;2.20;0.80;;;14.90;90.20;;;;;;5006821;28;20039;-71
2023/10/21 08:31:56;;;;;;;1.38;0.80;;;14.90;90.40;;;;;;5040865;28;20480;-71
2023/10/21 08:34:22;;;;;;;0.57;0.55;;;14.90;90.40;;;;;;5022958;28;20033;-70
2023/10/21 08:36:48;;;;;;;2.17;0.98;;;14.80;90.40;;;;;;5029856;28;20025;-68
2023/10/21 08:39:14;;;;;;;0.50;0.50;;;14.90;90.40;;;;;;5023725;28;20562;-69
2023/10/21 08:41:40;;;;;;;0.40;0.40;;;14.90;90.30;;;;;;5019474;28;20033;-68
2023/10/21 08:44:08;;;;;;;0.65;0.65;;;15.00;90.20;;;;;;5045255;28;20109;-68
2023/10/21 08:46:34;;;;;;;0.75;0.50;;;15.10;90.20;;;;;;5046131;28;20021;-68
2023/10/21 08:49:03;;;;;;;0.30;0.30;;;15.30;90.00;;;;;;5042036;28;20087;-69
2023/10/21 08:51:30;;;;;;;0.52;0.50;;;15.50;89.80;;;;;;5036458;28;20018;-69
2023/10/21 08:54:03;;;;;;;0.40;0.40;;;15.70;89.20;;;;;;5030538;28;20473;-69
2023/10/21 08:56:29;;;;;;;0.45;0.45;;;15.80;88.60;;;;;;5044984;28;20107;-68
2023/10/21 08:58:59;;;;;;;0.30;0.30;;;15.80;87.70;;;;;;5040998;28;20301;-64
2023/10/21 09:01:25;;;;;;;0.47;0.47;;;15.70;87.00;;;;;;5040505;28;20037;-63
2023/10/21 09:03:51;;;;;;;0.40;0.40;;;15.70;87.20;;;;;;5045981;28;20099;-64
2023/10/21 09:06:20;;;;;;;0.40;0.40;;;15.70;88.10;;;;;;5024838;28;20476;-64
2023/10/21 09:08:48;;;;;;;2.63;0.30;;;15.80;87.50;;;;;;5046680;28;20044;-64
2023/10/21 09:11:18;;;;;;;0.25;0.20;;;15.90;87.20;;;;;;5041062;28;20044;-69
2023/10/21 09:13:44;;;;;;;0.50;0.43;;;15.90;86.90;;;;;;5039972;28;20039;-69
2023/10/21 09:16:34;;;;;;;0.45;0.32;;;15.90;86.60;;;;;;5041904;28;20407;-69
2023/10/21 09:19:06;;;;;;;0.63;0.40;;;16.00;86.30;;;;;;5043655;28;20021;-69
2023/10/21 09:21:42;;;;;;;0.47;0.47;;;16.00;85.80;;;;;;5036997;28;20029;-64
2023/10/21 09:24:19;;;;;;;0.50;0.45;;;16.10;85.80;;;;;;5039089;28;20033;-64
2023/10/21 09:26:46;;;;;;;0.93;0.60;;;16.20;85.20;;;;;;5034195;28;20040;-64
2023/10/21 09:29:13;;;;;;;1.17;0.43;;;16.20;85.00;;;;;;5031373;28;20516;-63
2023/10/21 09:31:55;;;;;;;0.38;0.38;;;16.20;84.90;;;;;;5033012;28;20033;-64
2023/10/21 09:34:34;;;;;;;0.30;0.30;;;16.30;84.20;;;;;;5039920;28;20711;-64
2023/10/21 09:37:04;;;;;;;1.23;0.55;;;16.20;84.40;;;;;;5046929;28;20071;-64
2023/10/21 09:39:36;;;;;;;0.40;0.40;;;16.20;84.10;;;;;;5044782;28;20056;-64
2023/10/21 09:42:03;;;;;;;0.55;0.55;;;16.10;83.70;;;;;;5036333;28;20053;-64
2023/10/21 09:44:30;;;;;;;0.82;0.35;;;16.10;83.50;;;;;;5043772;28;20060;-64
2023/10/21 09:46:57;;;;;;;0.30;0.30;;;16.00;83.70;;;;;;5039391;28;20056;-64
2023/10/21 09:49:24;;;;;;;1.27;0.30;;;16.00;83.90;;;;;;5022612;28;20092;-64
2023/10/21 09:52:00;;;;;;;0.70;0.70;;;16.00;84.10;;;;;;5042096;28;20375;-64
2023/10/21 09:54:40;;;;;;;0.40;0.40;;;15.90;84.10;;;;;;5036852;28;20065;-64
2023/10/21 09:57:12;;;;;;;0.40;0.40;;;15.90;82.80;;;;;;5043314;28;20067;-64
2023/10/21 09:59:38;;;;;;;0.40;0.40;;;15.80;83.00;;;;;;5030741;28;20025;-64
2023/10/21 10:02:07;;;;;;;0.30;0.30;;;15.80;82.80;;;;;;5024586;28;20791;-64
2023/10/21 10:04:38;;;;;;;0.40;0.20;;;15.70;82.80;;;;;;5031890;28;20710;-64
2023/10/21 10:07:08;;;;;;;0.40;0.40;;;15.80;82.00;;;;;;5043913;28;20041;-64
2023/10/21 10:09:39;;;;;;;0.57;0.45;;;15.70;82.40;;;;;;5041769;28;20561;-64
2023/10/21 10:12:16;;;;;;;0.40;0.40;;;15.70;82.60;;;;;;5045736;28;20087;-63
2023/10/21 10:14:43;;;;;;;0.73;0.38;;;15.80;81.60;;;;;;5041807;28;20096;-64
2023/10/21 10:17:09;;;;;;;0.40;0.40;;;15.70;81.40;;;;;;5042160;28;20091;-64
2023/10/21 10:19:42;;;;;;;0.38;0.38;;;15.70;81.20;;;;;;5037963;28;20343;-63
2023/10/21 10:22:18;;;;;;;0.90;0.70;;;15.80;81.20;;;;;;5042754;28;20029;-63
2023/10/21 10:24:57;;;;;;;0.30;0.30;;;15.70;80.40;;;;;;5042414;28;20041;-69
2023/10/21 10:27:38;;;;;;;1.08;0.43;;;15.80;80.30;;;;;;5043028;28;20033;-69
2023/10/21 10:30:22;;;;;;;0.63;0.63;;;15.90;80.30;;;;;;4992702;28;20032;-70
2023/10/21 10:32:52;;;;;;;0.30;0.30;;;16.00;80.00;;;;;;5024728;28;20360;-70
2023/10/21 10:35:34;;;;;;;0.70;0.43;;;16.00;79.60;;;;;;5046488;28;20045;-70
2023/10/21 10:38:01;;;;;;;0.30;0.30;;;16.20;78.70;;;;;;5034252;28;20028;-70
2023/10/21 10:40:36;;;;;;;0.50;0.50;;;16.30;78.50;;;;;;5046966;28;20017;-68
2023/10/21 10:43:03;;;;;;;0.73;0.32;;;16.40;78.40;;;;;;5048908;28;20112;-68
2023/10/21 10:45:32;;;;;;;1.40;0.60;;;16.40;77.90;;;;;;5045790;28;20041;-63
2023/10/21 10:48:02;;;;;;;0.47;0.47;;;16.50;78.10;;;;;;5045660;28;20393;-63
2023/10/21 10:50:31;;;;;;;0.82;0.57;;;16.50;77.00;;;;;;5045286;28;20082;-62
2023/10/21 10:52:57;;;;;;;0.32;0.32;;;16.60;77.40;;;;;;5042300;28;20029;-62
2023/10/21 10:55:23;;;;;;;1.17;0.50;;;16.60;77.50;;;;;;5042472;28;20408;-62
2023/10/21 10:57:51;;;;;;;1.42;0.50;;;16.70;77.70;;;;;;5048969;28;20029;-69
2023/10/21 11:00:20;;;;;;;0.30;0.30;;;16.70;77.50;;;;;;5025068;28;20082;-66
2023/10/21 11:02:49;;;;;;;0.30;0.30;;;16.90;76.80;;;;;;5046493;28;20488;-70
2023/10/21 11:05:17;;;;;;;1.38;0.40;;;17.20;74.90;;;;;;5046494;28;20621;-72
2023/10/21 11:07:43;;;;;;;2.05;0.40;;;17.30;74.90;;;;;;5029314;28;20049;-73
2023/10/21 11:10:09;;;;;;;0.52;0.52;;;17.40;74.60;;;;;;5043598;28;20489;-70
2023/10/21 11:12:36;;;;;;;1.50;0.60;;;17.60;73.80;;;;;;5039473;28;20547;-70
2023/10/21 11:15:06;;;;;;;0.65;0.43;;;17.70;74.20;;;;;;5040781;28;20038;-62
2023/10/21 11:17:33;;;;;;;1.75;0.40;;;17.90;73.40;;;;;;5046806;28;20021;-64
2023/10/21 11:19:59;;;;;;;3.20;1.00;;;18.00;72.60;;;;;;5048249;28;20028;-64
2023/10/21 11:22:26;;;;;;;1.38;0.50;;;18.20;72.40;;;;;;5011480;28;20033;-63
2023/10/21 11:24:55;;;;;;;5.05;0.73;;;18.20;69.90;;;;;;5043747;28;20037;-63
2023/10/21 11:27:22;;;;;;;0.50;0.38;;;18.20;70.30;;;;;;5043490;28;20029;-63
2023/10/21 11:29:51;;;;;;;0.63;0.55;;;18.40;68.70;;;;;;5043079;28;20029;-63
2023/10/21 11:32:26;;;;;;;0.68;0.50;;;18.60;69.90;;;;;;5038405;28;20513;-62
2023/10/21 11:34:52;;;;;;;0.63;0.52;;;18.90;69.20;;;;;;5039775;28;20040;-61
2023/10/21 11:37:20;;;;;;;0.98;0.63;;;19.00;68.60;;;;;;5048704;28;20029;-61
2023/10/21 11:39:49;;;;;;;0.75;0.70;;;19.00;69.00;;;;;;5044156;28;20032;-63
2023/10/21 11:42:19;;;;;;;1.60;0.50;;;19.20;68.80;;;;;;5042167;28;20025;-63
2023/10/21 11:44:55;;;;;;;2.78;0.50;;;19.20;68.30;;;;;;5039674;28;20037;-63
2023/10/21 11:47:29;;;;;;;0.70;0.52;;;19.10;68.30;;;;;;5041066;28;20032;-63
2023/10/21 11:49:56;;;;;;;0.30;0.30;;;19.00;66.80;;;;;;5043198;28;20021;-63
2023/10/21 11:52:23;;;;;;;0.65;0.60;;;19.10;67.70;;;;;;5046413;28;20107;-63
2023/10/21 11:55:21;;;;;;;0.50;0.50;;;19.40;67.40;;;;;;5040531;28;20533;-63
2023/10/21 12:17:10;;;;;;;0.63;0.57;;;19.80;64.60;;;;;;4997662;28;20042;-69
2023/10/21 12:43:35;;;;;;;0.40;0.40;;;21.30;59.40;;;;;;5041867;28;20032;-69
2023/10/21 12:46:14;;;;;;;0.45;0.45;;;20.70;58.70;;;;;;5042855;28;20461;-69
2023/10/21 12:48:41;;;;;;;0.52;0.43;;;20.10;60.00;;;;;;5039685;28;20032;-69
2023/10/21 12:51:09;;;;;;;0.40;0.40;;;19.70;61.90;;;;;;5025178;28;20041;-63
2023/10/21 12:53:35;;;;;;;4.00;0.68;;;19.70;61.50;;;;;;5024054;28;20063;-63
2023/10/21 12:56:01;;;;;;;2.83;0.98;;;19.90;62.50;;;;;;5044700;28;20075;-63
2023/10/21 12:58:26;;;;;;;2.00;0.40;;;20.00;61.50;;;;;;5040733;28;20021;-63
2023/10/21 13:00:52;;;;;;;1.95;0.68;;;19.90;61.20;;;;;;5037886;28;20396;-63
2023/10/21 13:03:18;;;;;;;1.02;0.38;;;19.90;61.10;;;;;;5042074;28;20301;-63
2023/10/21 13:05:46;;;;;;;0.70;0.70;;;19.70;60.50;;;;;;5009139;28;20033;-63
2023/10/21 13:08:11;;;;;;;4.93;0.55;;;19.50;61.60;;;;;;5042872;28;20036;-63
2023/10/21 13:10:37;;;;;;;2.60;0.75;;;19.30;62.40;;;;;;5038904;28;20380;-63
2023/10/21 13:13:06;;;;;;;1.80;0.63;;;19.40;63.20;;;;;;5020492;28;20029;-63
2023/10/21 13:15:32;;;;;;;0.63;0.30;;;19.80;62.20;;;;;;5042262;28;20029;-62
2023/10/21 13:18:03;;;;;;;2.30;0.70;;;19.90;60.60;;;;;;5025765;28;20028;-63
2023/10/21 13:20:29;;;;;;;0.40;0.40;;;19.90;60.90;;;;;;5042822;28;20098;-63
2023/10/21 13:22:54;;;;;;;2.60;0.63;;;19.90;60.00;;;;;;5044155;28;20438;-63
2023/10/21 13:25:21;;;;;;;0.57;0.45;;;19.90;60.60;;;;;;5038807;28;20421;-63
2023/10/21 13:27:47;;;;;;;2.38;0.95;;;20.00;59.40;;;;;;5045161;28;20040;-64
2023/10/21 13:30:13;;;;;;;0.77;0.50;;;19.90;59.30;;;;;;5025581;28;20108;-63
2023/10/21 13:32:47;;;;;;;5.70;0.75;;;20.40;58.50;;;;;;5041315;28;20033;-66